Kandiyohi, Minnesota
Current Conditions -  °F | °C
As of 8:55 AM on Friday 19 Dec 2014 (Local Time) from KBDH Reporting Station
Haze Haze  
Wind Chill: 19°   Ceiling: 600
Heat Index: 27°   Visibility: 2.5mi
Dew Point: 25°   Wind: 7mph
Humidity: 93%   Direction: 150°SSE
Pressure: 30.18"   Gusts: NA
Location:  45.13°N, 94.93°W
Report Text: KBDH 191455Z AUTO 15006KT 2 1/2SM BR OVC006 M03/M04 A3018 RMK AO2
Loading
Personal Weather Stations






























Interactive Weather Map New forecast layout! Learn more

10-Day Weather Forecast

Advertisements
Track Severe Weather on mobile